Aviation Digital Data Service (ADDS)

Output produced by METARs form (0141 UTC 14 February 2016)
found at http://www.aviationweather.gov/adds/metars/
 
KILG 140051Z AUTO 29009KT 10SM FEW050 FEW060 M11/M20 A3036 RMK AO2 SLP283 T11061200
KILG 132341Z 1400/1424 31016G26KT P6SM SCT050 
     FM140200 31014G22KT P6SM FEW050 
     FM141000 31012KT P6SM SKC 
     FM142100 30007KT P6SM SCT200